Terminal Aerodrome Forecast
Issued by NWS

Home | Current Version | Previous Version | Text Only | Print | Product List | Glossary On
Versions: 1 2 3 4 5 6 7 8 9 10 11 12 13 14
918
FTUS46 KLOX 271758
TAFPMD
TAF
KPMD 271758Z 2718/2818 25005KT P6SM SKC
     FM272000 25012KT P6SM SCT100
     FM272300 24015G23KT P6SM SCT100
     FM280300 25010KT P6SM SKC
     FM280700 20008KT P6SM SKC=

USA.gov is the U.S. government's official web portal to all federal, state and local government web resources and services.